createdAt,value
2022-10-15T00:01:57.041Z,1.47
2022-10-15T00:04:24.362Z,1.47
2022-10-15T00:06:51.546Z,0.80
2022-10-15T00:09:18.831Z,1.00
2022-10-15T00:11:45.819Z,2.17
2022-10-15T00:14:13.076Z,1.40
2022-10-15T00:16:40.832Z,2.13
2022-10-15T00:19:08.568Z,4.23
2022-10-15T00:21:36.363Z,1.70
2022-10-15T00:24:04.299Z,2.10
2022-10-15T00:26:31.731Z,2.73
2022-10-15T00:29:00.673Z,1.73
2022-10-15T00:31:30.705Z,3.77
2022-10-15T00:34:01.639Z,0.90
2022-10-15T00:36:35.515Z,1.73
2022-10-15T00:39:04.644Z,4.63
2022-10-15T00:41:33.968Z,1.70
2022-10-15T00:44:02.863Z,2.77
2022-10-15T00:46:36.821Z,1.90
2022-10-15T00:49:14.960Z,1.33
2022-10-15T00:51:44.978Z,1.00
2022-10-15T00:54:12.825Z,1.60
2022-10-15T00:56:41.955Z,1.50
2022-10-15T00:59:09.973Z,2.03
2022-10-15T01:01:37.537Z,0.60
2022-10-15T01:04:05.360Z,1.07
2022-10-15T01:06:33.251Z,0.73
2022-10-15T01:09:01.197Z,1.10
2022-10-15T01:11:57.685Z,2.03
2022-10-15T01:15:11.096Z,0.93
2022-10-15T01:17:48.084Z,1.90
2022-10-15T01:21:07.704Z,1.00
2022-10-15T01:24:03.077Z,0.77
2022-10-15T01:26:51.073Z,1.60
2022-10-15T01:29:39.666Z,2.17
2022-10-15T01:32:33.764Z,4.23
2022-10-15T01:35:29.277Z,2.17
2022-10-15T01:38:00.919Z,0.63
2022-10-15T01:40:34.885Z,2.03
2022-10-15T01:43:05.065Z,1.23
2022-10-15T01:45:53.513Z,0.47
2022-10-15T01:48:35.830Z,1.30
2022-10-15T01:51:06.637Z,2.57
2022-10-15T01:53:35.345Z,2.43
2022-10-15T01:56:14.193Z,2.20
2022-10-15T01:58:43.238Z,0.83
2022-10-15T02:01:11.423Z,1.70
2022-10-15T02:04:17.756Z,2.13
2022-10-15T02:07:03.159Z,5.70
2022-10-15T02:09:53.834Z,0.57
2022-10-15T02:12:48.335Z,1.73
2022-10-15T02:15:25.962Z,0.80
2022-10-15T02:18:05.462Z,2.10
2022-10-15T02:20:53.428Z,2.67
2022-10-15T02:23:44.652Z,2.07
2022-10-15T02:26:13.332Z,1.20
2022-10-15T02:28:43.427Z,0.93
2022-10-15T02:31:14.640Z,1.53
2022-10-15T02:33:43.515Z,2.80
2022-10-15T02:36:14.733Z,1.60
2022-10-15T02:38:44.776Z,0.70
2022-10-15T02:41:12.998Z,2.47
2022-10-15T02:43:41.865Z,3.20
2022-10-15T02:46:12.729Z,4.60
2022-10-15T02:48:39.802Z,0.87
2022-10-15T02:51:07.223Z,4.27
2022-10-15T02:53:35.471Z,4.30
2022-10-15T02:56:04.509Z,1.53
2022-10-15T02:58:32.228Z,2.07
2022-10-15T03:00:59.552Z,1.90
2022-10-15T03:03:28.848Z,8.43
2022-10-15T03:05:56.852Z,5.30
2022-10-15T03:08:24.412Z,6.40
2022-10-15T03:10:51.981Z,1.17
2022-10-15T03:13:19.667Z,1.43
2022-10-15T03:15:52.302Z,3.67
2022-10-15T03:18:22.648Z,3.27
2022-10-15T03:20:58.596Z,2.93
2022-10-15T03:23:26.487Z,2.13
2022-10-15T03:26:04.282Z,6.47
2022-10-15T03:28:32.324Z,1.50
2022-10-15T03:31:00.400Z,2.47
2022-10-15T03:33:28.912Z,2.80
2022-10-15T03:35:57.608Z,6.53
2022-10-15T03:38:25.934Z,3.63
2022-10-15T03:40:54.473Z,1.73
2022-10-15T03:43:43.049Z,2.80
2022-10-15T03:46:12.720Z,1.60
2022-10-15T03:48:43.987Z,2.23
2022-10-15T03:51:15.706Z,8.60
2022-10-15T03:53:48.108Z,4.73
2022-10-15T03:56:15.934Z,2.10
2022-10-15T03:58:43.691Z,2.40
2022-10-15T04:01:17.082Z,6.27
2022-10-15T04:03:45.345Z,1.93
2022-10-15T04:06:17.952Z,7.93
2022-10-15T04:08:46.299Z,4.07
2022-10-15T04:11:25.893Z,3.37
2022-10-15T04:14:02.338Z,6.67
2022-10-15T04:16:34.225Z,5.13
2022-10-15T04:19:11.223Z,9.27
2022-10-15T04:21:40.509Z,4.23
2022-10-15T04:24:09.279Z,3.73
2022-10-15T04:26:40.717Z,3.10
2022-10-15T04:29:08.678Z,11.30
2022-10-15T04:31:37.878Z,2.90
2022-10-15T04:34:06.381Z,3.63
2022-10-15T04:36:34.142Z,2.27
2022-10-15T04:39:12.259Z,3.87
2022-10-15T04:41:44.139Z,6.13
2022-10-15T04:44:18.092Z,4.67
2022-10-15T04:46:53.945Z,5.10
2022-10-15T04:49:35.286Z,2.90
2022-10-15T04:52:08.874Z,3.60
2022-10-15T04:54:56.278Z,4.90
2022-10-15T04:57:24.178Z,3.77
2022-10-15T04:59:56.873Z,2.40
2022-10-15T05:02:45.590Z,9.23
2022-10-15T05:05:36.458Z,7.27
2022-10-15T05:08:05.870Z,5.00
2022-10-15T05:10:45.332Z,3.93
2022-10-15T05:13:13.209Z,5.77
2022-10-15T05:15:40.913Z,4.00
2022-10-15T05:18:10.488Z,7.30
2022-10-15T05:20:47.559Z,2.87
2022-10-15T05:23:18.395Z,7.03
2022-10-15T05:25:55.148Z,4.20
2022-10-15T05:28:26.262Z,3.43
2022-10-15T05:30:54.540Z,4.37
2022-10-15T05:33:21.954Z,6.23
2022-10-15T05:35:49.431Z,10.77
2022-10-15T05:38:19.887Z,8.73
2022-10-15T05:40:50.963Z,5.23
2022-10-15T05:43:23.422Z,2.60
2022-10-15T05:45:54.700Z,7.67
2022-10-15T05:48:23.450Z,2.10
2022-10-15T05:50:51.079Z,4.63
2022-10-15T05:53:24.640Z,4.27
2022-10-15T05:55:55.938Z,5.40
2022-10-15T05:58:30.827Z,3.90
2022-10-15T06:01:02.220Z,5.33
2022-10-15T06:03:29.633Z,5.77
2022-10-15T06:05:57.318Z,5.73
2022-10-15T06:08:25.032Z,5.47
2022-10-15T06:10:52.875Z,7.47
2022-10-15T06:13:20.590Z,6.33
2022-10-15T06:15:48.296Z,6.13
2022-10-15T06:18:16.502Z,5.43
2022-10-15T06:20:45.033Z,1.80
2022-10-15T06:23:13.569Z,6.50
2022-10-15T06:25:41.248Z,10.80
2022-10-15T06:28:09.686Z,3.90
2022-10-15T06:30:42.264Z,6.53
2022-10-15T06:35:42.844Z,9.00
2022-10-15T06:38:10.540Z,3.93
2022-10-15T06:40:39.301Z,10.03
2022-10-15T06:43:10.995Z,3.83
2022-10-15T06:45:40.709Z,2.77
2022-10-15T06:48:15.629Z,7.47
2022-10-15T06:50:43.306Z,4.07
2022-10-15T06:53:10.931Z,3.53
2022-10-15T06:55:39.661Z,9.60
2022-10-15T06:58:07.403Z,6.53
2022-10-15T07:03:06.949Z,3.97
2022-10-15T07:05:35.177Z,9.47
2022-10-15T07:08:02.837Z,6.77
2022-10-15T07:10:31.215Z,8.93
2022-10-15T07:13:02.133Z,8.63
2022-10-15T07:15:30.082Z,2.00
2022-10-15T07:18:01.628Z,2.67
2022-10-15T07:20:32.700Z,1.90
2022-10-15T07:23:02.039Z,3.67
2022-10-15T07:25:34.924Z,6.20
2022-10-15T07:28:02.605Z,3.77
2022-10-15T07:30:30.246Z,4.73
2022-10-15T07:32:58.564Z,4.03
2022-10-15T07:35:27.165Z,2.37
2022-10-15T07:37:55.185Z,4.10
2022-10-15T07:40:22.851Z,3.60
2022-10-15T07:42:54.727Z,2.63
2022-10-15T07:45:22.869Z,8.77
2022-10-15T07:47:50.694Z,4.90
2022-10-15T07:50:18.505Z,4.40
2022-10-15T07:52:46.927Z,5.80
2022-10-15T07:55:14.798Z,4.87
2022-10-15T07:57:42.416Z,3.97
2022-10-15T08:00:10.082Z,2.50
2022-10-15T08:02:40.607Z,3.20
2022-10-15T08:05:08.473Z,2.87
2022-10-15T08:07:36.168Z,8.23
2022-10-15T08:10:08.197Z,3.27
2022-10-15T08:12:37.446Z,4.40
2022-10-15T08:15:04.921Z,2.63
2022-10-15T08:17:32.747Z,2.93
2022-10-15T08:20:00.009Z,3.00
2022-10-15T08:22:27.622Z,7.83
2022-10-15T08:24:56.520Z,4.20
2022-10-15T08:27:23.567Z,7.80
2022-10-15T08:29:57.242Z,3.27
2022-10-15T08:32:24.477Z,6.00
2022-10-15T08:34:51.696Z,8.93
2022-10-15T08:37:18.826Z,9.73
2022-10-15T08:39:46.746Z,4.40
2022-10-15T08:42:28.738Z,10.50
2022-10-15T08:45:06.900Z,7.40
2022-10-15T08:47:41.992Z,3.67
2022-10-15T08:50:48.284Z,3.90
2022-10-15T08:53:22.310Z,2.23
2022-10-15T08:55:52.081Z,3.57
2022-10-15T08:58:30.501Z,1.70
2022-10-15T09:01:00.588Z,5.53
2022-10-15T09:04:22.036Z,5.60
2022-10-15T09:06:52.724Z,9.13
2022-10-15T09:09:44.479Z,4.63
2022-10-15T09:13:03.645Z,2.43
2022-10-15T09:15:34.892Z,7.87
2022-10-15T09:18:02.576Z,4.83
2022-10-15T09:20:37.161Z,5.67
2022-10-15T09:23:04.856Z,7.90
2022-10-15T09:25:40.694Z,2.83
2022-10-15T09:28:15.455Z,2.20
2022-10-15T09:30:54.390Z,3.53
2022-10-15T09:33:47.861Z,5.13
2022-10-15T09:36:22.665Z,3.07
2022-10-15T09:38:55.653Z,5.30
2022-10-15T09:41:53.845Z,3.37
2022-10-15T09:44:23.421Z,10.97
2022-10-15T09:46:52.010Z,2.50
2022-10-15T09:49:25.724Z,1.67
2022-10-15T09:52:16.702Z,3.13
2022-10-15T09:55:13.694Z,2.07
2022-10-15T09:57:41.567Z,8.97
2022-10-15T10:00:10.862Z,1.80
2022-10-15T10:03:01.122Z,1.83
2022-10-15T10:05:33.294Z,2.33
2022-10-15T10:08:19.826Z,7.87
2022-10-15T10:10:54.470Z,3.80
2022-10-15T10:13:26.610Z,4.87
2022-10-15T10:15:58.363Z,1.10
2022-10-15T10:18:27.429Z,6.87
2022-10-15T10:21:02.609Z,6.57
2022-10-15T10:23:39.942Z,4.30
2022-10-15T10:26:08.236Z,3.57
2022-10-15T10:28:40.570Z,5.13
2022-10-15T10:31:11.599Z,6.17
2022-10-15T10:33:49.717Z,2.83
2022-10-15T10:36:39.531Z,12.23
2022-10-15T10:39:29.588Z,2.67
2022-10-15T10:42:24.958Z,5.23
2022-10-15T10:44:53.482Z,2.63
2022-10-15T10:47:22.938Z,8.07
2022-10-15T10:49:55.447Z,3.87
2022-10-15T10:52:30.157Z,6.07
2022-10-15T10:55:09.295Z,3.13
2022-10-15T10:57:42.699Z,6.87
2022-10-15T11:00:14.474Z,5.47
2022-10-15T11:02:44.090Z,3.93
2022-10-15T11:05:12.575Z,3.80
2022-10-15T11:07:48.129Z,2.23
2022-10-15T11:10:26.766Z,5.20
2022-10-15T11:13:07.383Z,5.27
2022-10-15T11:15:42.668Z,2.40
2022-10-15T11:18:30.414Z,4.83
2022-10-15T11:21:07.231Z,1.97
2022-10-15T11:23:55.784Z,1.10
2022-10-15T11:26:59.031Z,2.80
2022-10-15T11:29:52.346Z,3.87
2022-10-15T11:33:06.090Z,2.90
2022-10-15T11:35:54.389Z,2.60
2022-10-15T11:38:45.603Z,2.77
2022-10-15T11:41:32.345Z,2.37
2022-10-15T11:44:23.057Z,2.70
2022-10-15T11:47:12.901Z,4.57
2022-10-15T11:49:54.313Z,1.07
2022-10-15T11:52:54.538Z,1.50
2022-10-15T11:55:24.307Z,1.97
2022-10-15T11:57:53.564Z,1.57
2022-10-15T12:00:49.662Z,2.03
2022-10-15T12:03:22.501Z,5.13
2022-10-15T12:06:14.383Z,4.57
2022-10-15T12:08:42.748Z,4.10
2022-10-15T12:11:42.001Z,1.13
2022-10-15T12:14:37.452Z,1.43
2022-10-15T12:17:25.189Z,4.80
2022-10-15T12:19:54.672Z,2.97
2022-10-15T12:22:34.399Z,3.10
2022-10-15T12:25:02.422Z,3.23
2022-10-15T12:27:35.079Z,2.40
2022-10-15T12:30:21.079Z,3.50
2022-10-15T12:32:50.009Z,2.43
2022-10-15T12:35:38.568Z,4.57
2022-10-15T12:38:33.100Z,1.83
2022-10-15T12:41:07.053Z,4.53
2022-10-15T12:43:38.170Z,4.10
2022-10-15T12:46:07.763Z,3.87
2022-10-15T12:48:37.941Z,6.07
2022-10-15T12:51:36.886Z,4.03
2022-10-15T12:54:50.105Z,1.77
2022-10-15T12:57:55.871Z,2.67
2022-10-15T13:00:32.230Z,2.13
2022-10-15T13:03:17.682Z,4.43
2022-10-15T13:05:47.779Z,8.73
2022-10-15T13:08:26.409Z,3.27
2022-10-15T13:10:59.463Z,3.33
2022-10-15T13:13:30.977Z,2.37
2022-10-15T13:16:02.237Z,1.83
2022-10-15T13:18:31.858Z,10.00
2022-10-15T13:20:59.723Z,4.50
2022-10-15T13:23:32.610Z,2.33
2022-10-15T13:26:21.710Z,3.13
2022-10-15T13:28:50.987Z,5.33
2022-10-15T13:31:30.771Z,2.20
2022-10-15T13:34:31.848Z,3.53
2022-10-15T13:37:03.912Z,1.20
2022-10-15T13:39:37.513Z,2.70
2022-10-15T13:42:31.513Z,2.83
2022-10-15T13:45:18.585Z,2.27
2022-10-15T13:47:50.630Z,5.73
2022-10-15T13:50:24.617Z,4.63
2022-10-15T13:53:15.619Z,2.30
2022-10-15T13:55:50.785Z,2.60
2022-10-15T13:58:35.124Z,2.87
2022-10-15T14:01:18.317Z,4.00
2022-10-15T14:03:56.930Z,5.97
2022-10-15T14:06:35.162Z,11.47
2022-10-15T14:09:15.262Z,2.40
2022-10-15T14:11:42.418Z,2.47
2022-10-15T14:14:36.826Z,4.13
2022-10-15T14:17:09.911Z,6.57
2022-10-15T14:19:39.171Z,10.33
2022-10-15T14:22:06.704Z,9.37
2022-10-15T14:24:38.605Z,2.80
2022-10-15T14:27:15.803Z,3.13
2022-10-15T14:29:48.122Z,1.87
2022-10-15T14:32:48.642Z,1.60
2022-10-15T14:35:35.423Z,4.97
2022-10-15T14:38:05.151Z,2.00
2022-10-15T14:40:32.441Z,5.70
2022-10-15T14:43:18.506Z,3.23
2022-10-15T14:46:16.104Z,10.57
2022-10-15T14:48:44.569Z,4.80
2022-10-15T14:51:20.802Z,3.60
2022-10-15T14:53:48.444Z,3.53
2022-10-15T14:56:20.099Z,0.93
2022-10-15T14:58:54.259Z,4.17
2022-10-15T15:01:21.789Z,5.67
2022-10-15T15:03:52.165Z,6.67
2022-10-15T15:06:19.631Z,3.00
2022-10-15T15:08:46.729Z,1.10
2022-10-15T15:11:23.912Z,3.90
2022-10-15T15:13:52.325Z,0.93
2022-10-15T15:16:19.722Z,5.10
2022-10-15T15:18:48.833Z,7.43
2022-10-15T15:21:20.090Z,4.67
2022-10-15T15:23:48.398Z,4.00
2022-10-15T15:26:15.585Z,5.97
2022-10-15T15:28:42.694Z,2.05
2022-10-15T15:31:17.287Z,3.67
2022-10-15T15:33:44.389Z,5.85
2022-10-15T15:36:18.951Z,3.75
2022-10-15T15:38:49.996Z,9.23
2022-10-15T15:41:22.760Z,4.00
2022-10-15T15:43:50.669Z,5.20
2022-10-15T15:46:18.048Z,6.53
2022-10-15T15:48:45.126Z,4.83
2022-10-15T15:51:25.766Z,3.23
2022-10-15T15:53:53.089Z,12.73
2022-10-15T15:56:20.342Z,4.43
2022-10-15T15:58:50.395Z,6.60
2022-10-15T16:01:18.843Z,9.93
2022-10-15T16:03:46.529Z,6.80
2022-10-15T16:06:14.164Z,15.23
2022-10-15T16:08:41.294Z,9.50
2022-10-15T16:11:08.366Z,8.53
2022-10-15T16:13:35.738Z,8.23
2022-10-15T16:16:03.366Z,5.97
2022-10-15T16:18:30.459Z,10.83
2022-10-15T16:20:57.723Z,5.63
2022-10-15T16:23:24.768Z,5.97
2022-10-15T16:25:52.306Z,11.47
2022-10-15T16:28:19.357Z,20.20
2022-10-15T16:30:46.424Z,17.20
2022-10-15T16:33:13.525Z,7.33
2022-10-15T16:35:40.576Z,4.90
2022-10-15T16:38:07.642Z,8.97
2022-10-15T16:40:35.459Z,7.23
2022-10-15T16:43:02.894Z,5.07
2022-10-15T16:45:29.973Z,12.47
2022-10-15T16:47:57.223Z,7.00
2022-10-15T16:50:24.350Z,9.43
2022-10-15T16:52:51.320Z,3.37
2022-10-15T16:55:18.414Z,7.07
2022-10-15T16:57:45.744Z,5.10
2022-10-15T17:00:13.125Z,5.20
2022-10-15T17:02:40.175Z,2.63
2022-10-15T17:05:08.092Z,4.13
2022-10-15T17:07:35.072Z,6.43
2022-10-15T17:10:02.342Z,5.93
2022-10-15T17:12:29.481Z,6.00
2022-10-15T17:14:56.544Z,6.00
2022-10-15T17:17:23.598Z,2.90
2022-10-15T17:19:50.657Z,12.33
2022-10-15T17:22:17.714Z,10.80
2022-10-15T17:24:44.762Z,7.67
2022-10-15T17:27:11.968Z,9.20
2022-10-15T17:29:39.087Z,3.23
2022-10-15T17:32:06.088Z,6.20
2022-10-15T17:34:33.333Z,4.33
2022-10-15T17:37:00.790Z,5.30
2022-10-15T17:39:27.830Z,3.33
2022-10-15T17:41:55.056Z,11.03
2022-10-15T17:44:22.222Z,9.13
2022-10-15T17:46:50.735Z,16.47
2022-10-15T17:49:20.501Z,15.73
2022-10-15T17:51:47.761Z,15.03
2022-10-15T17:54:15.004Z,17.03
2022-10-15T17:56:43.141Z,17.97
2022-10-15T17:59:12.614Z,25.47
2022-10-15T18:02:00.747Z,8.63
2022-10-15T18:04:30.312Z,6.43
2022-10-15T18:06:57.427Z,4.83
2022-10-15T18:09:28.350Z,6.83
2022-10-15T18:11:58.777Z,9.53
2022-10-15T18:14:31.500Z,9.60
2022-10-15T18:16:58.671Z,6.87
2022-10-15T18:19:26.880Z,9.23
2022-10-15T18:21:55.462Z,7.10
2022-10-15T18:24:23.671Z,5.17
2022-10-15T18:26:51.951Z,9.10
2022-10-15T18:29:19.885Z,11.53
2022-10-15T18:31:47.522Z,7.73
2022-10-15T18:34:15.428Z,5.30
2022-10-15T18:36:43.745Z,6.70
2022-10-15T18:39:11.814Z,6.07
2022-10-15T18:41:40.369Z,9.70
2022-10-15T18:44:18.069Z,11.03
2022-10-15T18:46:45.710Z,7.67
2022-10-15T18:49:14.463Z,11.97
2022-10-15T18:51:41.958Z,8.33
2022-10-15T18:54:11.024Z,5.67
2022-10-15T18:56:38.380Z,6.53
2022-10-15T18:59:05.394Z,3.90
2022-10-15T19:01:37.575Z,4.53
2022-10-15T19:04:10.692Z,11.50
2022-10-15T19:06:40.621Z,3.07
2022-10-15T19:09:11.292Z,10.00
2022-10-15T19:11:39.825Z,12.63
2022-10-15T19:14:07.493Z,10.83
2022-10-15T19:16:35.478Z,6.33
2022-10-15T19:19:04.827Z,11.50
2022-10-15T19:21:32.673Z,9.77
2022-10-15T19:24:00.232Z,7.07
2022-10-15T19:26:28.484Z,3.47
2022-10-15T19:28:56.878Z,4.50
2022-10-15T19:31:39.929Z,8.83
2022-10-15T19:34:07.220Z,2.10
2022-10-15T19:36:37.926Z,8.80
2022-10-15T19:39:17.633Z,18.40
2022-10-15T19:41:45.719Z,10.50
2022-10-15T19:44:15.944Z,6.33
2022-10-15T19:46:44.009Z,5.63
2022-10-15T19:49:12.292Z,7.70
2022-10-15T19:51:39.627Z,7.27
2022-10-15T19:54:07.179Z,11.17
2022-10-15T19:56:34.873Z,7.30
2022-10-15T19:59:04.321Z,10.97
2022-10-15T20:01:32.051Z,10.03
2022-10-15T20:04:09.184Z,18.07
2022-10-15T20:06:38.631Z,11.00
2022-10-15T20:09:09.085Z,17.77
2022-10-15T20:11:37.210Z,16.83
2022-10-15T20:14:04.418Z,19.93
2022-10-15T20:16:33.396Z,13.93
2022-10-15T20:19:02.545Z,7.97
2022-10-15T20:21:29.855Z,9.20
2022-10-15T20:23:57.689Z,5.13
2022-10-15T20:26:24.767Z,11.07
2022-10-15T20:28:51.951Z,9.20
2022-10-15T20:31:21.554Z,12.10
2022-10-15T20:33:49.292Z,11.03
2022-10-15T20:36:22.696Z,9.80
2022-10-15T20:38:51.535Z,9.40
2022-10-15T20:41:19.774Z,14.23
2022-10-15T20:43:51.403Z,5.97
2022-10-15T20:46:43.766Z,15.30
2022-10-15T20:49:15.397Z,13.63
2022-10-15T20:51:44.785Z,9.97
2022-10-15T20:54:14.153Z,15.77
2022-10-15T20:56:42.561Z,9.00
2022-10-15T20:59:09.642Z,7.83
2022-10-15T21:01:37.786Z,12.87
2022-10-15T21:04:05.451Z,16.77
2022-10-15T21:06:33.159Z,14.00
2022-10-15T21:09:00.268Z,6.90
2022-10-15T21:11:27.470Z,11.73
2022-10-15T21:13:54.534Z,11.47
2022-10-15T21:16:24.567Z,15.17
2022-10-15T21:18:54.579Z,18.23
2022-10-15T21:21:21.767Z,9.73
2022-10-15T21:23:49.061Z,7.10
2022-10-15T21:26:17.595Z,17.87
2022-10-15T21:28:45.595Z,9.57
2022-10-15T21:31:15.773Z,14.50
2022-10-15T21:33:43.601Z,10.33
2022-10-15T21:36:22.033Z,13.03
2022-10-15T21:38:57.387Z,14.13
2022-10-15T21:41:26.232Z,8.50
2022-10-15T21:43:53.320Z,8.97
2022-10-15T21:46:20.476Z,18.50
2022-10-15T21:48:47.624Z,13.90
2022-10-15T21:51:17.891Z,4.23
2022-10-15T21:53:45.353Z,12.20
2022-10-15T21:56:12.608Z,16.33
2022-10-15T21:58:41.336Z,18.83
2022-10-15T22:01:22.004Z,18.13
2022-10-15T22:03:50.819Z,14.83
2022-10-15T22:06:18.915Z,10.67
2022-10-15T22:08:46.247Z,21.33
2022-10-15T22:11:22.725Z,7.03
2022-10-15T22:13:52.664Z,7.97
2022-10-15T22:16:20.709Z,9.30
2022-10-15T22:18:47.842Z,12.60
2022-10-15T22:21:26.544Z,20.07
2022-10-15T22:23:58.676Z,18.23
2022-10-15T22:26:29.166Z,20.40
2022-10-15T22:28:58.286Z,15.93
2022-10-15T22:31:26.610Z,15.57
2022-10-15T22:33:54.282Z,6.80
2022-10-15T22:36:23.553Z,8.30
2022-10-15T22:39:01.603Z,34.20
2022-10-15T22:41:30.660Z,13.33
2022-10-15T22:43:58.336Z,14.37
2022-10-15T22:46:26.334Z,10.17
2022-10-15T22:48:53.798Z,14.87
2022-10-15T22:51:21.264Z,13.77
2022-10-15T22:53:48.818Z,13.73
2022-10-15T22:56:17.935Z,14.23
2022-10-15T22:58:45.904Z,16.13
2022-10-15T23:01:24.300Z,7.27
2022-10-15T23:03:54.105Z,20.10
2022-10-15T23:06:21.888Z,16.73
2022-10-15T23:08:49.126Z,11.53
2022-10-15T23:11:25.565Z,16.53
2022-10-15T23:13:58.011Z,11.33
2022-10-15T23:16:33.844Z,14.13
2022-10-15T23:19:03.222Z,13.03
2022-10-15T23:21:44.875Z,9.17
2022-10-15T23:24:12.837Z,9.83
2022-10-15T23:26:40.912Z,7.27
2022-10-15T23:29:11.630Z,11.43
2022-10-15T23:31:38.712Z,10.90
2022-10-15T23:34:06.527Z,10.77
2022-10-15T23:36:34.178Z,11.27
2022-10-15T23:39:02.824Z,12.90
2022-10-15T23:41:31.010Z,13.13
2022-10-15T23:43:58.364Z,17.97
2022-10-15T23:46:26.171Z,16.33
2022-10-15T23:48:53.499Z,17.70
2022-10-15T23:51:23.350Z,11.13
2022-10-15T23:53:51.626Z,14.33
2022-10-15T23:56:19.378Z,7.33
2022-10-15T23:58:54.325Z,15.83
